createdAt,value
2022-10-25T00:00:52.877Z,99567.13
2022-10-25T00:02:26.354Z,99542.81
2022-10-25T00:04:00.037Z,99564.50
2022-10-25T00:05:33.305Z,99561.00
2022-10-25T00:07:06.430Z,99560.22
2022-10-25T00:08:41.416Z,99544.66
2022-10-25T00:10:14.569Z,99558.94
2022-10-25T00:11:47.903Z,99566.97
2022-10-25T00:13:21.128Z,99556.44
2022-10-25T00:14:55.151Z,99558.19
2022-10-25T00:16:30.685Z,99557.31
2022-10-25T00:18:04.101Z,99552.91
2022-10-25T00:19:37.435Z,99552.06
2022-10-25T00:21:09.684Z,99553.84
2022-10-25T00:22:42.928Z,99559.22
2022-10-25T00:24:17.621Z,99555.56
2022-10-25T00:25:51.041Z,99559.13
2022-10-25T00:27:24.280Z,99553.88
2022-10-25T00:28:57.475Z,99552.22
2022-10-25T00:30:30.785Z,99552.16
2022-10-25T00:32:04.288Z,99548.72
2022-10-25T00:33:39.294Z,99542.78
2022-10-25T00:35:12.410Z,99541.06
2022-10-25T00:36:46.256Z,99546.31
2022-10-25T00:38:19.839Z,99545.50
2022-10-25T00:39:54.559Z,99547.44
2022-10-25T00:41:29.652Z,99533.50
2022-10-25T00:43:02.935Z,99544.09
2022-10-25T00:44:50.569Z,99533.69
2022-10-25T00:46:28.352Z,99545.16
2022-10-25T00:48:05.001Z,99538.16
2022-10-25T00:49:37.638Z,99540.81
2022-10-25T00:51:11.009Z,99531.16
2022-10-25T00:52:45.898Z,99534.72
2022-10-25T00:54:24.498Z,99523.69
2022-10-25T00:56:03.845Z,99539.41
2022-10-25T00:57:42.113Z,99536.94
2022-10-25T00:59:20.040Z,99540.00
2022-10-25T01:00:53.226Z,99538.44
2022-10-25T01:02:26.923Z,99535.06
2022-10-25T01:04:04.069Z,99535.19
2022-10-25T01:05:37.566Z,99527.34
2022-10-25T01:07:10.688Z,99539.63
2022-10-25T01:08:45.240Z,99540.59
2022-10-25T01:10:18.638Z,99535.47
2022-10-25T01:11:53.338Z,99521.75
2022-10-25T01:13:26.602Z,99538.31
2022-10-25T01:14:59.244Z,99530.47
2022-10-25T01:16:41.554Z,99527.03
2022-10-25T01:18:18.892Z,99531.63
2022-10-25T01:20:14.910Z,99526.41
2022-10-25T01:21:50.761Z,99529.06
2022-10-25T01:23:40.853Z,99533.47
2022-10-25T01:25:49.140Z,99527.50
2022-10-25T01:27:53.616Z,99531.06
2022-10-25T01:29:45.324Z,99531.16
2022-10-25T01:31:28.732Z,99530.31
2022-10-25T01:33:12.657Z,99524.16
2022-10-25T01:34:51.661Z,99530.41
2022-10-25T01:36:36.312Z,99528.81
2022-10-25T01:38:30.249Z,99525.31
2022-10-25T01:40:10.793Z,99519.97
2022-10-25T01:41:53.652Z,99503.50
2022-10-25T01:43:34.718Z,99515.59
2022-10-25T01:45:12.342Z,99518.97
2022-10-25T01:46:51.709Z,99511.88
2022-10-25T01:48:30.325Z,99518.78
2022-10-25T01:50:08.778Z,99513.50
2022-10-25T01:51:42.008Z,99513.50
2022-10-25T01:53:14.276Z,99504.69
2022-10-25T01:54:47.551Z,99507.44
2022-10-25T01:56:27.309Z,99502.94
2022-10-25T01:58:07.275Z,99499.38
2022-10-25T01:59:57.900Z,99498.59
2022-10-25T02:01:39.544Z,99497.75
2022-10-25T02:03:24.052Z,99497.84
2022-10-25T02:05:05.171Z,99505.75
2022-10-25T02:06:48.458Z,99505.75
2022-10-25T02:08:30.287Z,99511.03
2022-10-25T02:10:10.348Z,99500.56
2022-10-25T02:11:43.545Z,99505.78
2022-10-25T02:13:23.613Z,99493.47
2022-10-25T02:15:06.001Z,99503.03
2022-10-25T02:16:44.441Z,99506.50
2022-10-25T02:18:23.571Z,99495.81
2022-10-25T02:20:01.874Z,99497.56
2022-10-25T02:21:37.631Z,99497.56
2022-10-25T02:23:10.035Z,99496.59
2022-10-25T02:24:46.687Z,99500.00
2022-10-25T02:26:21.105Z,99503.47
2022-10-25T02:27:56.520Z,99504.28
2022-10-25T02:29:32.892Z,99503.44
2022-10-25T02:31:09.785Z,99505.91
2022-10-25T02:32:43.111Z,99503.34
2022-10-25T02:34:17.645Z,99503.41
2022-10-25T02:36:06.108Z,99492.09
2022-10-25T02:37:39.222Z,99491.28
2022-10-25T02:39:12.525Z,99494.09
2022-10-25T02:40:46.146Z,99481.34
2022-10-25T02:42:19.456Z,99487.47
2022-10-25T02:43:52.639Z,99478.16
2022-10-25T02:45:25.864Z,99493.06
2022-10-25T02:46:59.573Z,99489.72
2022-10-25T02:48:32.065Z,99495.97
2022-10-25T02:50:07.329Z,99486.38
2022-10-25T02:51:40.713Z,99489.91
2022-10-25T02:53:14.094Z,99484.81
2022-10-25T02:54:47.524Z,99488.53
2022-10-25T02:56:22.734Z,99483.44
2022-10-25T02:57:55.922Z,99487.06
2022-10-25T02:59:30.043Z,99486.97
2022-10-25T03:01:03.684Z,99486.91
2022-10-25T03:02:36.946Z,99485.91
2022-10-25T03:04:10.208Z,99483.19
2022-10-25T03:05:44.817Z,99491.75
2022-10-25T03:07:18.180Z,99491.66
2022-10-25T03:08:51.332Z,99490.66
2022-10-25T03:10:24.533Z,99486.19
2022-10-25T03:11:57.906Z,99490.53
2022-10-25T03:13:31.326Z,99484.47
2022-10-25T03:15:04.682Z,99480.97
2022-10-25T03:16:37.906Z,99481.94
2022-10-25T03:18:11.560Z,99487.31
2022-10-25T03:19:44.820Z,99483.91
2022-10-25T03:21:18.391Z,99475.97
2022-10-25T03:22:51.596Z,99483.19
2022-10-25T03:24:25.074Z,99478.22
2022-10-25T03:25:59.789Z,99485.41
2022-10-25T03:27:32.950Z,99481.88
2022-10-25T03:29:06.161Z,99481.78
2022-10-25T03:30:39.440Z,99479.06
2022-10-25T03:32:12.693Z,99477.31
2022-10-25T03:33:46.100Z,99490.69
2022-10-25T03:35:19.366Z,99479.41
2022-10-25T03:36:54.190Z,99470.66
2022-10-25T03:38:26.358Z,99487.56
2022-10-25T03:39:59.801Z,99480.56
2022-10-25T03:41:33.020Z,99484.13
2022-10-25T03:43:06.506Z,99472.66
2022-10-25T03:44:39.991Z,99475.28
2022-10-25T03:46:13.309Z,99470.78
2022-10-25T03:47:45.834Z,99472.53
2022-10-25T03:49:19.540Z,99468.09
2022-10-25T03:50:51.726Z,99469.06
2022-10-25T03:52:26.593Z,99464.81
2022-10-25T03:53:59.833Z,99477.22
2022-10-25T03:55:33.378Z,99479.97
2022-10-25T03:57:06.545Z,99474.88
2022-10-25T03:58:39.893Z,99467.16
2022-10-25T04:00:14.408Z,99470.09
2022-10-25T04:01:47.735Z,99469.28
2022-10-25T04:03:21.007Z,99465.91
2022-10-25T04:04:54.338Z,99478.13
2022-10-25T04:06:27.589Z,99473.59
2022-10-25T04:08:02.431Z,99473.50
2022-10-25T04:09:35.628Z,99475.13
2022-10-25T04:11:08.995Z,99470.78
2022-10-25T04:12:42.369Z,99456.13
2022-10-25T04:14:15.831Z,99471.81
2022-10-25T04:15:49.005Z,99469.97
2022-10-25T04:17:22.252Z,99470.00
2022-10-25T04:18:55.760Z,99458.00
2022-10-25T04:20:29.134Z,99469.28
2022-10-25T04:22:03.108Z,99462.28
2022-10-25T04:23:37.799Z,99459.53
2022-10-25T04:25:10.090Z,99448.28
2022-10-25T04:26:43.672Z,99467.38
2022-10-25T04:28:17.016Z,99462.47
2022-10-25T04:29:50.248Z,99467.09
2022-10-25T04:31:25.036Z,99471.47
2022-10-25T04:32:59.301Z,99473.22
2022-10-25T04:34:32.432Z,99464.34
2022-10-25T04:36:06.256Z,99474.78
2022-10-25T04:37:38.590Z,99468.66
2022-10-25T04:39:13.360Z,99462.59
2022-10-25T04:40:53.456Z,99464.41
2022-10-25T04:42:26.758Z,99465.44
2022-10-25T04:43:59.991Z,99468.84
2022-10-25T04:45:33.447Z,99469.59
2022-10-25T04:47:05.688Z,99471.25
2022-10-25T04:48:39.022Z,99466.13
2022-10-25T04:50:12.248Z,99472.22
2022-10-25T04:51:45.489Z,99468.78
2022-10-25T04:53:18.675Z,99474.88
2022-10-25T04:54:53.373Z,99470.44
2022-10-25T04:56:26.649Z,99470.44
2022-10-25T04:57:59.895Z,99465.97
2022-10-25T04:59:33.051Z,99478.94
2022-10-25T05:01:09.311Z,99486.66
2022-10-25T05:02:42.706Z,99485.66
2022-10-25T05:04:16.118Z,99480.19
2022-10-25T05:05:49.276Z,99473.03
2022-10-25T05:07:22.816Z,99474.56
2022-10-25T05:08:56.629Z,99489.41
2022-10-25T05:10:31.357Z,99482.13
2022-10-25T05:12:04.663Z,99481.94
2022-10-25T05:13:39.085Z,99499.59
2022-10-25T05:15:12.454Z,99490.69
2022-10-25T05:16:45.909Z,99482.78
2022-10-25T05:18:18.026Z,99491.69
2022-10-25T05:19:51.230Z,99491.69
2022-10-25T05:21:28.804Z,99475.22
2022-10-25T05:23:02.661Z,99496.69
2022-10-25T05:24:35.804Z,99489.63
2022-10-25T05:26:12.782Z,99499.00
2022-10-25T05:27:45.987Z,99497.81
2022-10-25T05:29:19.361Z,99500.28
2022-10-25T05:30:52.525Z,99494.00
2022-10-25T05:32:25.740Z,99493.19
2022-10-25T05:34:02.030Z,99503.66
2022-10-25T05:35:35.597Z,99487.72
2022-10-25T05:37:08.746Z,99503.31
2022-10-25T05:38:42.283Z,99498.72
2022-10-25T05:40:15.596Z,99504.66
2022-10-25T05:41:50.811Z,99501.22
2022-10-25T05:43:24.650Z,99497.38
2022-10-25T05:44:57.913Z,99508.69
2022-10-25T05:46:31.337Z,99505.25
2022-10-25T05:48:04.857Z,99501.81
2022-10-25T05:49:40.312Z,99507.94
2022-10-25T05:51:32.182Z,99507.84
2022-10-25T05:53:06.142Z,99519.91
2022-10-25T05:54:39.239Z,99513.31
2022-10-25T05:56:11.489Z,99519.03
2022-10-25T05:57:51.782Z,99520.38
2022-10-25T05:59:25.057Z,99521.41
2022-10-25T06:01:00.918Z,99525.94
2022-10-25T06:02:35.473Z,99523.69
2022-10-25T06:04:09.489Z,99526.84
2022-10-25T06:05:42.827Z,99531.81
2022-10-25T06:07:15.923Z,99522.31
2022-10-25T06:08:49.391Z,99539.28
2022-10-25T06:10:22.657Z,99536.63
2022-10-25T06:11:55.939Z,99523.13
2022-10-25T06:13:30.645Z,99528.81
2022-10-25T06:15:04.115Z,99524.78
2022-10-25T06:16:38.825Z,99526.34
2022-10-25T06:18:12.161Z,99517.59
2022-10-25T06:19:45.300Z,99509.56
2022-10-25T06:21:20.469Z,99508.50
2022-10-25T06:22:53.661Z,99506.59
2022-10-25T06:24:27.006Z,99506.38
2022-10-25T06:26:02.292Z,99506.13
2022-10-25T06:27:35.614Z,99517.25
2022-10-25T06:29:10.716Z,99516.38
2022-10-25T06:30:44.085Z,99515.31
2022-10-25T06:32:17.227Z,99509.34
2022-10-25T06:33:50.450Z,99502.84
2022-10-25T06:35:23.654Z,99508.09
2022-10-25T06:36:57.047Z,99501.91
2022-10-25T06:38:29.514Z,99505.13
2022-10-25T06:40:02.818Z,99504.84
2022-10-25T06:41:37.954Z,99494.38
2022-10-25T06:43:11.381Z,99497.81
2022-10-25T06:44:45.894Z,99497.28
2022-10-25T06:46:23.631Z,99508.84
2022-10-25T06:47:56.873Z,99511.34
2022-10-25T06:49:30.318Z,99500.88
2022-10-25T06:51:03.912Z,99499.53
2022-10-25T06:52:37.218Z,99498.91
2022-10-25T06:54:10.535Z,99494.34
2022-10-25T06:55:45.109Z,99500.38
2022-10-25T06:57:18.206Z,99500.72
2022-10-25T06:58:51.782Z,99496.78
2022-10-25T07:00:26.529Z,99498.31
2022-10-25T07:02:00.200Z,99499.66
2022-10-25T07:03:35.873Z,99495.25
2022-10-25T07:05:09.957Z,99483.78
2022-10-25T07:06:43.486Z,99493.91
2022-10-25T07:08:16.873Z,99483.03
2022-10-25T07:09:50.022Z,99494.09
2022-10-25T07:11:24.656Z,99493.72
2022-10-25T07:12:57.846Z,99488.16
2022-10-25T07:14:31.160Z,99483.75
2022-10-25T07:16:07.806Z,99489.19
2022-10-25T07:17:41.150Z,99486.31
2022-10-25T07:19:14.548Z,99481.22
2022-10-25T07:20:48.869Z,99486.50
2022-10-25T07:22:21.960Z,99480.28
2022-10-25T07:23:55.282Z,99482.03
2022-10-25T07:25:28.576Z,99482.84
2022-10-25T07:27:01.916Z,99482.53
2022-10-25T07:28:35.051Z,99481.91
2022-10-25T07:30:09.642Z,99476.91
2022-10-25T07:31:45.302Z,99489.81
2022-10-25T07:33:20.445Z,99482.81
2022-10-25T07:34:53.580Z,99474.66
2022-10-25T07:36:27.107Z,99483.63
2022-10-25T07:38:00.617Z,99478.81
2022-10-25T07:39:34.099Z,99465.38
2022-10-25T07:41:09.158Z,99472.66
2022-10-25T07:42:42.540Z,99473.63
2022-10-25T07:44:19.221Z,99468.25
2022-10-25T07:45:55.316Z,99474.03
2022-10-25T07:47:29.826Z,99475.22
2022-10-25T07:49:03.122Z,99472.25
2022-10-25T07:50:36.468Z,99464.41
2022-10-25T07:52:11.517Z,99465.66
2022-10-25T07:53:44.647Z,99465.56
2022-10-25T07:55:17.945Z,99466.97
2022-10-25T07:56:51.117Z,99457.22
2022-10-25T07:58:24.645Z,99459.38
2022-10-25T07:59:58.206Z,99455.75
2022-10-25T08:01:31.469Z,99457.00
2022-10-25T08:03:06.259Z,99449.81
2022-10-25T08:04:39.821Z,99448.75
2022-10-25T08:06:12.960Z,99452.19
2022-10-25T08:07:46.489Z,99442.25
2022-10-25T08:09:33.376Z,99446.81
2022-10-25T08:11:11.062Z,99432.94
2022-10-25T08:12:44.185Z,99444.31
2022-10-25T08:14:17.642Z,99443.06
2022-10-25T08:15:51.949Z,99440.38
2022-10-25T08:17:25.359Z,99450.16
2022-10-25T08:18:59.862Z,99438.09
2022-10-25T08:20:59.995Z,99429.84
2022-10-25T08:22:26.458Z,99429.00
2022-10-25T08:23:59.692Z,99425.81
2022-10-25T08:25:32.830Z,99427.94
2022-10-25T08:27:06.096Z,99425.16
2022-10-25T08:28:39.601Z,99421.72
2022-10-25T08:30:13.239Z,99423.41
2022-10-25T08:31:46.438Z,99425.09
2022-10-25T08:33:19.742Z,99421.63
2022-10-25T08:34:54.530Z,99415.88
2022-10-25T08:36:28.174Z,99427.41
2022-10-25T08:38:02.202Z,99420.84
2022-10-25T08:39:35.483Z,99413.44
2022-10-25T08:41:14.908Z,99405.16
2022-10-25T08:43:06.549Z,99414.44
2022-10-25T08:44:47.098Z,99408.44
2022-10-25T08:46:25.082Z,99416.25
2022-10-25T08:48:00.059Z,99409.91
2022-10-25T08:49:43.561Z,99407.13
2022-10-25T08:51:27.066Z,99408.47
2022-10-25T08:53:05.113Z,99402.00
2022-10-25T08:54:42.047Z,99406.72
2022-10-25T08:56:19.879Z,99401.94
2022-10-25T08:57:55.354Z,99398.59
2022-10-25T08:59:34.906Z,99397.06
2022-10-25T09:01:15.968Z,99401.72
2022-10-25T09:02:53.434Z,99406.28
2022-10-25T09:04:27.656Z,99399.44
2022-10-25T09:06:12.575Z,99395.06
2022-10-25T09:08:02.470Z,99397.31
2022-10-25T09:09:44.353Z,99401.72
2022-10-25T09:11:31.730Z,99389.22
2022-10-25T09:13:15.706Z,99391.44
2022-10-25T09:14:52.617Z,99390.06
2022-10-25T09:16:32.721Z,99390.19
2022-10-25T09:18:16.800Z,99385.41
2022-10-25T09:21:39.705Z,99397.56
2022-10-25T09:25:04.037Z,99388.69
2022-10-25T09:26:43.556Z,99389.63
2022-10-25T09:28:20.400Z,99381.34
2022-10-25T09:30:05.036Z,99380.84
2022-10-25T09:31:45.398Z,99370.56
2022-10-25T09:33:28.376Z,99373.00
2022-10-25T09:35:04.618Z,99381.31
2022-10-25T09:36:44.128Z,99364.25
2022-10-25T09:38:23.602Z,99358.81
2022-10-25T09:40:01.741Z,99359.19
2022-10-25T09:41:40.076Z,99359.34
2022-10-25T09:43:17.778Z,99352.84
2022-10-25T09:44:55.874Z,99357.97
2022-10-25T09:46:38.158Z,99356.19
2022-10-25T09:48:18.542Z,99352.00
2022-10-25T09:49:59.269Z,99338.25
2022-10-25T09:51:39.085Z,99349.59
2022-10-25T09:53:14.228Z,99339.81
2022-10-25T09:54:55.513Z,99342.25
2022-10-25T09:56:29.036Z,99348.13
2022-10-25T09:58:02.903Z,99348.59
2022-10-25T09:59:36.278Z,99342.69
2022-10-25T10:01:20.537Z,99343.84
2022-10-25T10:02:54.423Z,99338.66
2022-10-25T10:04:35.375Z,99338.34
2022-10-25T10:06:18.551Z,99338.56
2022-10-25T10:07:54.793Z,99339.00
2022-10-25T10:09:31.708Z,99337.47
2022-10-25T10:11:07.172Z,99335.75
2022-10-25T10:12:45.087Z,99336.47
2022-10-25T10:14:28.160Z,99345.00
2022-10-25T10:16:06.381Z,99330.53
2022-10-25T10:17:39.587Z,99337.66
2022-10-25T10:19:19.288Z,99337.94
2022-10-25T10:21:19.150Z,99333.47
2022-10-25T10:22:54.873Z,99333.91
2022-10-25T10:24:30.774Z,99331.53
2022-10-25T10:26:12.708Z,99330.81
2022-10-25T10:27:49.213Z,99327.97
2022-10-25T10:29:24.150Z,99324.44
2022-10-25T10:30:59.901Z,99317.31
2022-10-25T10:32:35.606Z,99308.22
2022-10-25T10:34:26.858Z,99310.22
2022-10-25T10:36:22.881Z,99308.50
2022-10-25T10:38:15.393Z,99294.00
2022-10-25T10:39:53.856Z,99306.22
2022-10-25T10:41:29.631Z,99300.47
2022-10-25T10:43:28.098Z,99306.19
2022-10-25T10:45:04.008Z,99309.03
2022-10-25T10:46:37.424Z,99309.00
2022-10-25T10:48:21.471Z,99301.56
2022-10-25T10:49:54.748Z,99296.41
2022-10-25T10:51:43.869Z,99307.75
2022-10-25T10:53:22.192Z,99299.75
2022-10-25T10:54:56.559Z,99300.81
2022-10-25T10:56:33.347Z,99297.53
2022-10-25T10:58:12.834Z,99295.91
2022-10-25T10:59:54.373Z,99293.44
2022-10-25T11:01:33.506Z,99291.28
2022-10-25T11:03:06.997Z,99285.78
2022-10-25T11:04:48.794Z,99286.88
2022-10-25T11:06:27.569Z,99292.00
2022-10-25T11:08:03.144Z,99283.53
2022-10-25T11:09:36.427Z,99284.53
2022-10-25T11:11:20.921Z,99291.38
2022-10-25T11:13:10.694Z,99293.78
2022-10-25T11:14:44.117Z,99288.72
2022-10-25T11:16:38.635Z,99288.72
2022-10-25T11:18:14.558Z,99286.72
2022-10-25T11:20:22.752Z,99301.16
2022-10-25T11:22:14.851Z,99300.66
2022-10-25T11:24:01.502Z,99300.66
2022-10-25T11:25:40.117Z,99294.41
2022-10-25T11:27:20.815Z,99299.84
2022-10-25T11:29:04.288Z,99292.06
2022-10-25T11:30:43.625Z,99291.06
2022-10-25T11:32:46.391Z,99294.31
2022-10-25T11:34:31.056Z,99284.63
2022-10-25T11:36:42.485Z,99291.72
2022-10-25T11:38:25.916Z,99300.53
2022-10-25T11:40:08.545Z,99299.91
2022-10-25T11:41:46.656Z,99299.59
2022-10-25T11:43:34.901Z,99287.06
2022-10-25T11:45:23.811Z,99288.44
2022-10-25T11:47:07.444Z,99294.41
2022-10-25T11:49:04.082Z,99291.84
2022-10-25T11:50:49.313Z,99280.34
2022-10-25T11:52:44.434Z,99267.56
2022-10-25T11:54:29.596Z,99280.19
2022-10-25T11:56:08.565Z,99282.59
2022-10-25T11:57:49.613Z,99278.88
2022-10-25T11:59:28.490Z,99276.16
2022-10-25T12:01:11.613Z,99280.72
2022-10-25T12:03:05.380Z,99276.63
2022-10-25T12:05:06.226Z,99275.44
2022-10-25T12:06:47.270Z,99281.44
2022-10-25T12:08:43.057Z,99283.50
2022-10-25T12:10:23.785Z,99281.66
2022-10-25T12:12:02.832Z,99282.19
2022-10-25T12:13:40.285Z,99275.91
2022-10-25T12:15:18.985Z,99276.75
2022-10-25T12:16:53.819Z,99274.41
2022-10-25T12:18:33.208Z,99272.38
2022-10-25T12:20:14.474Z,99276.09
2022-10-25T12:21:54.828Z,99280.84
2022-10-25T12:23:33.035Z,99270.66
2022-10-25T12:25:15.024Z,99271.84
2022-10-25T12:26:50.253Z,99261.31
2022-10-25T12:28:28.957Z,99258.75
2022-10-25T12:30:07.142Z,99259.75
2022-10-25T12:31:44.522Z,99263.81
2022-10-25T12:33:32.740Z,99262.13
2022-10-25T12:35:18.814Z,99263.09
2022-10-25T12:36:55.409Z,99261.41
2022-10-25T12:38:34.076Z,99262.44
2022-10-25T12:40:15.165Z,99259.41
2022-10-25T12:41:53.106Z,99264.28
2022-10-25T12:43:34.220Z,99267.16
2022-10-25T12:45:32.691Z,99256.13
2022-10-25T12:47:22.584Z,99265.59
2022-10-25T12:49:18.757Z,99276.31
2022-10-25T12:51:18.013Z,99267.47
2022-10-25T12:53:22.761Z,99254.06
2022-10-25T12:55:35.150Z,99263.75
2022-10-25T12:57:17.766Z,99271.19
2022-10-25T12:59:05.067Z,99269.81
2022-10-25T13:00:44.869Z,99269.28
2022-10-25T13:02:43.760Z,99271.84
2022-10-25T13:04:35.721Z,99266.41
2022-10-25T13:06:30.153Z,99259.97
2022-10-25T13:08:06.135Z,99278.50
2022-10-25T13:09:40.494Z,99257.56
2022-10-25T13:11:14.110Z,99264.38
2022-10-25T13:13:00.955Z,99262.53
2022-10-25T13:14:38.072Z,99255.56
2022-10-25T13:16:11.804Z,99254.69
2022-10-25T13:17:48.406Z,99251.44
2022-10-25T13:19:53.458Z,99245.94
2022-10-25T13:22:08.439Z,99263.63
2022-10-25T13:24:00.685Z,99257.88
2022-10-25T13:26:05.935Z,99261.91
2022-10-25T13:27:41.103Z,99256.50
2022-10-25T13:29:47.391Z,99259.19
2022-10-25T13:31:57.080Z,99252.22
2022-10-25T13:33:33.698Z,99253.41
2022-10-25T13:35:48.353Z,99251.88
2022-10-25T13:37:43.274Z,99247.41
2022-10-25T13:39:21.573Z,99252.84
2022-10-25T13:41:13.868Z,99244.84
2022-10-25T13:42:48.765Z,99244.84
2022-10-25T13:44:27.211Z,99248.56
2022-10-25T13:46:00.487Z,99238.66
2022-10-25T13:47:38.661Z,99252.91
2022-10-25T13:49:43.166Z,99245.78
2022-10-25T13:51:20.930Z,99258.66
2022-10-25T13:53:02.655Z,99250.84
2022-10-25T13:54:49.289Z,99248.97
2022-10-25T13:56:36.684Z,99255.25
2022-10-25T13:58:39.390Z,99250.44
2022-10-25T14:00:26.744Z,99250.22
2022-10-25T14:02:16.464Z,99259.13
2022-10-25T14:03:51.986Z,99253.16
2022-10-25T14:05:58.758Z,99266.09
2022-10-25T14:07:48.748Z,99261.53
2022-10-25T14:09:26.881Z,99269.81
2022-10-25T14:11:10.441Z,99264.69
2022-10-25T14:12:48.784Z,99253.91
2022-10-25T14:14:29.813Z,99263.59
2022-10-25T14:16:06.218Z,99258.50
2022-10-25T14:17:43.171Z,99259.06
2022-10-25T14:19:21.434Z,99255.66
2022-10-25T14:20:59.418Z,99263.38
2022-10-25T14:22:36.962Z,99262.28
2022-10-25T14:24:15.793Z,99262.06
2022-10-25T14:25:55.484Z,99266.06
2022-10-25T14:27:31.866Z,99261.25
2022-10-25T14:29:15.406Z,99255.72
2022-10-25T14:30:50.366Z,99252.06
2022-10-25T14:32:24.087Z,99262.50
2022-10-25T14:33:57.552Z,99254.28
2022-10-25T14:35:34.811Z,99253.53
2022-10-25T14:37:16.322Z,99259.94
2022-10-25T14:38:53.995Z,99253.97
2022-10-25T14:40:31.885Z,99251.88
2022-10-25T14:42:05.958Z,99250.59
2022-10-25T14:43:42.623Z,99260.84
2022-10-25T14:45:21.848Z,99258.03
2022-10-25T14:46:56.123Z,99268.31
2022-10-25T14:48:30.183Z,99264.63
2022-10-25T14:50:03.861Z,99266.34
2022-10-25T14:51:39.170Z,99266.09
2022-10-25T14:53:17.177Z,99262.09
2022-10-25T14:54:56.828Z,99266.34
2022-10-25T14:56:36.159Z,99263.50
2022-10-25T14:58:13.029Z,99272.47
2022-10-25T14:59:49.408Z,99269.63
2022-10-25T15:01:29.876Z,99272.91
2022-10-25T15:03:25.682Z,99260.25
2022-10-25T15:05:01.338Z,99264.91
2022-10-25T15:06:34.992Z,99262.66
2022-10-25T15:08:19.405Z,99260.59
2022-10-25T15:09:55.339Z,99270.72
2022-10-25T15:11:28.517Z,99265.13
2022-10-25T15:13:05.520Z,99264.25
2022-10-25T15:14:39.267Z,99268.25
2022-10-25T15:16:31.355Z,99261.69
2022-10-25T15:18:05.422Z,99258.50
2022-10-25T15:20:04.247Z,99268.16
2022-10-25T15:21:42.606Z,99263.59
2022-10-25T15:23:20.773Z,99257.63
2022-10-25T15:24:53.997Z,99263.69
2022-10-25T15:26:29.246Z,99251.25
2022-10-25T15:28:12.934Z,99260.47
2022-10-25T15:31:28.313Z,99266.72
2022-10-25T15:33:01.837Z,99262.97
2022-10-25T15:34:35.106Z,99258.41
2022-10-25T15:36:20.721Z,99260.66
2022-10-25T15:37:54.114Z,99266.25
2022-10-25T15:39:29.235Z,99266.13
2022-10-25T15:41:02.936Z,99271.41
2022-10-25T15:42:36.265Z,99280.16
2022-10-25T15:44:10.828Z,99280.69
2022-10-25T15:45:44.194Z,99279.47
2022-10-25T15:47:37.544Z,99283.41
2022-10-25T15:49:13.963Z,99280.38
2022-10-25T15:50:48.645Z,99296.44
2022-10-25T15:52:22.552Z,99292.53
2022-10-25T15:53:55.829Z,99289.63
2022-10-25T15:55:33.013Z,99287.94
2022-10-25T15:57:06.428Z,99291.88
2022-10-25T15:58:39.620Z,99292.09
2022-10-25T16:00:17.009Z,99285.22
2022-10-25T16:01:55.325Z,99286.59
2022-10-25T16:03:28.641Z,99281.09
2022-10-25T16:05:01.852Z,99290.13
2022-10-25T16:06:35.167Z,99302.34
2022-10-25T16:08:09.113Z,99294.81
2022-10-25T16:09:42.342Z,99298.97
2022-10-25T16:11:18.474Z,99302.13
2022-10-25T16:12:58.597Z,99308.00
2022-10-25T16:14:32.961Z,99308.47
2022-10-25T16:16:34.946Z,99313.38
2022-10-25T16:18:05.466Z,99313.09
2022-10-25T16:19:38.867Z,99315.41
2022-10-25T16:21:12.049Z,99315.75
2022-10-25T16:22:46.034Z,99306.47
2022-10-25T16:24:19.906Z,99312.19
2022-10-25T16:25:54.222Z,99317.69
2022-10-25T16:27:27.668Z,99314.25
2022-10-25T16:29:00.907Z,99317.69
2022-10-25T16:30:36.552Z,99310.34
2022-10-25T16:32:13.057Z,99323.56
2022-10-25T16:33:46.269Z,99314.66
2022-10-25T16:35:24.104Z,99315.09
2022-10-25T16:36:57.558Z,99320.09
2022-10-25T16:38:30.920Z,99315.19
2022-10-25T16:40:04.817Z,99327.16
2022-10-25T16:41:39.478Z,99318.59
2022-10-25T16:43:17.647Z,99327.88
2022-10-25T16:44:50.896Z,99325.88
2022-10-25T16:46:24.819Z,99324.22
2022-10-25T16:47:59.808Z,99326.97
2022-10-25T16:49:33.427Z,99332.75
2022-10-25T16:51:07.023Z,99333.72
2022-10-25T16:52:40.373Z,99330.53
2022-10-25T16:54:14.555Z,99334.22
2022-10-25T16:55:48.884Z,99329.56
2022-10-25T16:57:22.126Z,99326.88
2022-10-25T16:58:55.683Z,99338.69
2022-10-25T17:00:32.086Z,99336.13
2022-10-25T17:02:05.425Z,99341.72
2022-10-25T17:03:40.586Z,99342.81
2022-10-25T17:05:18.876Z,99336.81
2022-10-25T17:06:52.294Z,99338.75
2022-10-25T17:08:25.895Z,99349.47
2022-10-25T17:09:59.269Z,99340.91
2022-10-25T17:11:32.598Z,99353.25
2022-10-25T17:13:06.050Z,99352.72
2022-10-25T17:14:39.476Z,99358.22
2022-10-25T17:16:14.875Z,99347.47
2022-10-25T17:17:48.487Z,99352.09
2022-10-25T17:19:23.410Z,99353.69
2022-10-25T17:20:56.874Z,99359.72
2022-10-25T17:22:30.309Z,99357.97
2022-10-25T17:24:04.646Z,99353.78
2022-10-25T17:25:38.130Z,99354.03
2022-10-25T17:27:11.641Z,99350.81
2022-10-25T17:28:45.245Z,99363.72
2022-10-25T17:30:19.161Z,99364.16
2022-10-25T17:31:52.656Z,99360.94
2022-10-25T17:33:26.211Z,99369.97
2022-10-25T17:35:01.355Z,99373.81
2022-10-25T17:36:35.357Z,99368.69
2022-10-25T17:38:10.303Z,99366.13
2022-10-25T17:39:45.350Z,99371.91
2022-10-25T17:41:19.107Z,99367.41
2022-10-25T17:42:53.420Z,99368.13
2022-10-25T17:44:27.184Z,99362.13
2022-10-25T17:46:04.886Z,99360.72
2022-10-25T17:47:42.461Z,99371.66
2022-10-25T17:49:15.651Z,99371.66
2022-10-25T17:50:50.201Z,99375.31
2022-10-25T17:52:23.466Z,99372.53
2022-10-25T17:53:57.406Z,99362.88
2022-10-25T17:55:33.248Z,99364.25
2022-10-25T17:57:07.471Z,99369.31
2022-10-25T17:58:42.445Z,99369.41
2022-10-25T18:00:16.553Z,99367.81
2022-10-25T18:01:49.866Z,99372.28
2022-10-25T18:03:23.271Z,99368.00
2022-10-25T18:05:18.935Z,99372.06
2022-10-25T18:06:51.818Z,99373.13
2022-10-25T18:08:25.088Z,99374.16
2022-10-25T18:09:58.304Z,99354.44
2022-10-25T18:11:31.549Z,99377.81
2022-10-25T18:13:05.107Z,99367.09
2022-10-25T18:14:38.391Z,99371.81
2022-10-25T18:16:13.275Z,99370.97
2022-10-25T18:17:46.976Z,99371.81
2022-10-25T18:19:20.644Z,99372.91
2022-10-25T18:20:53.877Z,99370.28
2022-10-25T18:22:28.716Z,99377.53
2022-10-25T18:24:05.681Z,99384.63
2022-10-25T18:25:39.145Z,99381.19
2022-10-25T18:27:15.051Z,99381.13
2022-10-25T18:28:50.240Z,99386.31
2022-10-25T18:30:23.375Z,99380.25
2022-10-25T18:31:56.753Z,99385.16
2022-10-25T18:33:29.975Z,99380.97
2022-10-25T18:35:03.343Z,99389.97
2022-10-25T18:36:36.572Z,99390.81
2022-10-25T18:38:14.559Z,99388.13
2022-10-25T18:39:49.517Z,99395.31
2022-10-25T18:41:24.877Z,99383.00
2022-10-25T18:42:58.139Z,99391.13
2022-10-25T18:44:31.714Z,99386.25
2022-10-25T18:46:05.064Z,99388.38
2022-10-25T18:47:38.177Z,99392.78
2022-10-25T18:49:13.731Z,99394.72
2022-10-25T18:50:47.038Z,99396.59
2022-10-25T18:52:22.315Z,99389.75
2022-10-25T18:53:57.540Z,99386.50
2022-10-25T18:55:31.129Z,99390.22
2022-10-25T18:57:04.677Z,99392.06
2022-10-25T18:58:37.939Z,99387.88
2022-10-25T19:00:12.269Z,99391.56
2022-10-25T19:01:45.636Z,99391.09
2022-10-25T19:03:19.013Z,99387.69
2022-10-25T19:04:52.161Z,99391.28
2022-10-25T19:06:25.780Z,99387.09
2022-10-25T19:07:59.264Z,99397.06
2022-10-25T19:09:34.019Z,99397.44
2022-10-25T19:11:09.288Z,99395.91